createdAt,value
2019-04-05T00:01:35.743Z,24.54
2019-04-05T00:04:10.141Z,24.58
2019-04-05T00:06:45.047Z,24.53
2019-04-05T00:09:19.490Z,24.23
2019-04-05T00:11:53.911Z,24.52
2019-04-05T00:14:27.982Z,24.43
2019-04-05T00:17:01.979Z,24.47
2019-04-05T00:19:36.203Z,24.24
2019-04-05T00:22:10.397Z,24.18
2019-04-05T00:24:44.803Z,24.36
2019-04-05T00:27:19.922Z,24.38
2019-04-05T00:29:54.072Z,24.24
2019-04-05T00:32:28.347Z,24.32
2019-04-05T00:35:02.372Z,24.32
2019-04-05T00:37:36.306Z,24.29
2019-04-05T00:40:11.566Z,24.17
2019-04-05T00:42:46.890Z,24.49
2019-04-05T00:45:28.002Z,24.28
2019-04-05T00:47:58.174Z,24.32
2019-04-05T00:50:32.402Z,24.33
2019-04-05T00:53:06.712Z,24.42
2019-04-05T00:55:40.992Z,24.41
2019-04-05T00:58:15.122Z,24.41
2019-04-05T01:00:49.469Z,24.37
2019-04-05T01:03:23.420Z,24.22
2019-04-05T01:05:57.711Z,24.46
2019-04-05T01:08:32.189Z,24.37
2019-04-05T01:11:06.565Z,24.51
2019-04-05T01:13:42.226Z,24.25
2019-04-05T01:16:16.279Z,24.37
2019-04-05T01:18:50.658Z,24.41
2019-04-05T01:21:27.017Z,24.46
2019-04-05T01:24:03.593Z,24.18
2019-04-05T01:30:20.298Z,24.12
2019-04-05T01:32:54.990Z,24.48
2019-04-05T01:35:29.152Z,24.46
2019-04-05T01:38:04.025Z,24.45
2019-04-05T01:40:40.900Z,24.13
2019-04-05T01:43:15.343Z,24.30
2019-04-05T01:45:53.934Z,24.36
2019-04-05T01:48:26.391Z,24.34
2019-04-05T01:51:01.034Z,24.45
2019-04-05T01:53:35.225Z,24.39
2019-04-05T01:56:09.688Z,24.39
2019-04-05T01:58:43.803Z,24.35
2019-04-05T02:01:18.183Z,24.15
2019-04-05T02:03:52.685Z,24.39
2019-04-05T02:06:26.919Z,24.09
2019-04-05T02:09:01.350Z,24.27
2019-04-05T02:11:37.032Z,24.36
2019-04-05T02:14:11.475Z,24.48
2019-04-05T02:16:45.674Z,24.46
2019-04-05T02:19:20.131Z,24.63
2019-04-05T02:21:54.536Z,24.67
2019-04-05T02:24:28.960Z,24.73
2019-04-05T02:27:03.165Z,24.70
2019-04-05T02:29:37.637Z,24.71
2019-04-05T02:32:12.015Z,24.71
2019-04-05T02:34:46.265Z,24.46
2019-04-05T02:37:20.413Z,24.65
2019-04-05T02:39:54.729Z,24.59
2019-04-05T02:42:30.054Z,24.71
2019-04-05T02:45:04.621Z,24.65
2019-04-05T02:47:41.851Z,24.47
2019-04-05T02:50:17.581Z,24.57
2019-04-05T02:52:53.140Z,24.65
2019-04-05T02:55:28.785Z,24.67
2019-04-05T02:58:05.156Z,24.48
2019-04-05T03:00:40.326Z,24.69
2019-04-05T03:03:14.693Z,24.76
2019-04-05T03:05:50.142Z,24.80
2019-04-05T03:08:24.299Z,24.74
2019-04-05T03:11:20.289Z,24.81
2019-04-05T03:13:57.171Z,24.78
2019-04-05T03:16:43.548Z,24.67
2019-04-05T03:19:26.927Z,24.74
2019-04-05T03:22:08.783Z,24.64
2019-04-05T03:24:45.879Z,24.73
2019-04-05T03:27:25.142Z,25.01
2019-04-05T03:29:59.732Z,25.39
2019-04-05T03:32:34.010Z,25.39
2019-04-05T03:35:08.209Z,25.43
2019-04-05T03:37:42.339Z,25.47
2019-04-05T03:40:16.892Z,25.52
2019-04-05T03:42:51.841Z,25.57
2019-04-05T03:45:26.173Z,25.61
2019-04-05T03:48:00.516Z,25.66
2019-04-05T03:50:34.598Z,25.68
2019-04-05T03:53:09.415Z,25.72
2019-04-05T03:55:43.834Z,25.76
2019-04-05T03:58:18.625Z,25.78
2019-04-05T04:00:52.847Z,25.85
2019-04-05T04:03:27.150Z,25.91
2019-04-05T04:06:01.412Z,25.96
2019-04-05T04:08:36.990Z,26.06
2019-04-05T04:11:11.325Z,26.03
2019-04-05T04:13:45.657Z,26.65
2019-04-05T04:16:20.462Z,26.63
2019-04-05T04:18:54.970Z,26.63
2019-04-05T04:21:41.855Z,26.64
2019-04-05T04:24:16.118Z,26.65
2019-04-05T04:26:51.308Z,26.69
2019-04-05T04:29:25.689Z,26.70
2019-04-05T04:31:59.891Z,26.74
2019-04-05T04:34:35.014Z,26.73
2019-04-05T04:37:09.269Z,26.52
2019-04-05T04:39:44.560Z,26.84
2019-04-05T04:42:19.146Z,26.92
2019-04-05T04:44:54.827Z,26.94
2019-04-05T04:47:29.460Z,26.89
2019-04-05T04:50:04.541Z,27.04
2019-04-05T04:52:38.909Z,27.25
2019-04-05T04:55:13.633Z,27.27
2019-04-05T04:57:47.845Z,27.33
2019-04-05T05:00:22.440Z,27.31
2019-04-05T05:02:57.160Z,27.44
2019-04-05T05:05:32.552Z,27.42
2019-04-05T05:08:07.015Z,27.37
2019-04-05T05:10:41.398Z,27.30
2019-04-05T05:13:15.674Z,27.31
2019-04-05T05:15:50.470Z,27.34
2019-04-05T05:18:25.441Z,27.36
2019-04-05T05:20:59.828Z,27.35
2019-04-05T05:23:34.545Z,27.35
2019-04-05T05:26:09.336Z,27.36
2019-04-05T05:28:44.021Z,27.38
2019-04-05T05:31:18.262Z,27.35
2019-04-05T05:33:52.506Z,27.40
2019-04-05T05:36:26.223Z,27.45
2019-04-05T05:39:00.859Z,27.45
2019-04-05T05:41:36.678Z,27.54
2019-04-05T05:44:10.845Z,27.57
2019-04-05T05:46:45.123Z,27.59
2019-04-05T05:49:19.273Z,27.59
2019-04-05T05:51:53.899Z,27.60
2019-04-05T05:54:28.057Z,27.63
2019-04-05T05:57:02.243Z,27.60
2019-04-05T05:59:36.404Z,27.64
2019-04-05T06:02:11.775Z,27.63
2019-04-05T06:04:45.611Z,27.64
2019-04-05T06:07:20.206Z,27.66
2019-04-05T06:09:54.507Z,27.68
2019-04-05T06:12:28.693Z,27.80
2019-04-05T06:15:03.047Z,27.76
2019-04-05T06:17:37.479Z,27.72
2019-04-05T06:20:11.926Z,27.76
2019-04-05T06:22:47.579Z,27.75
2019-04-05T06:25:22.306Z,27.72
2019-04-05T06:27:57.155Z,27.73
2019-04-05T06:30:32.536Z,27.75
2019-04-05T06:33:06.862Z,27.76
2019-04-05T06:35:42.109Z,27.78
2019-04-05T06:38:16.312Z,27.84
2019-04-05T06:40:50.576Z,27.93
2019-04-05T06:43:24.797Z,27.88
2019-04-05T06:45:59.119Z,27.85
2019-04-05T06:48:33.404Z,27.87
2019-04-05T06:51:07.581Z,27.92
2019-04-05T06:53:41.891Z,27.91
2019-04-05T06:56:16.080Z,27.91
2019-04-05T06:58:50.083Z,27.92
2019-04-05T07:01:24.195Z,27.95
2019-04-05T07:03:58.182Z,28.01
2019-04-05T07:06:32.397Z,27.97
2019-04-05T07:09:07.524Z,27.97
2019-04-05T07:11:41.741Z,27.98
2019-04-05T07:14:16.207Z,28.00
2019-04-05T07:16:50.805Z,28.02
2019-04-05T07:19:25.082Z,28.15
2019-04-05T07:21:59.111Z,28.15
2019-04-05T07:24:32.979Z,28.13
2019-04-05T07:27:06.895Z,28.10
2019-04-05T07:29:40.868Z,28.17
2019-04-05T07:32:14.999Z,28.18
2019-04-05T07:34:48.942Z,28.17
2019-04-05T07:37:23.346Z,28.19
2019-04-05T07:39:57.619Z,28.23
2019-04-05T07:42:31.760Z,28.24
2019-04-05T07:45:05.792Z,28.25
2019-04-05T07:47:39.953Z,28.28
2019-04-05T07:50:14.016Z,28.33
2019-04-05T07:52:48.124Z,28.34
2019-04-05T07:55:22.263Z,28.33
2019-04-05T07:57:58.330Z,28.37
2019-04-05T08:00:51.344Z,28.37
2019-04-05T08:03:25.917Z,28.34
2019-04-05T08:06:00.053Z,28.45
2019-04-05T08:09:07.915Z,28.37
2019-04-05T08:11:44.230Z,28.41
2019-04-05T08:14:20.916Z,28.46
2019-04-05T08:16:55.167Z,28.42
2019-04-05T08:19:29.556Z,28.53
2019-04-05T08:22:03.411Z,28.54
2019-04-05T08:24:37.414Z,28.60
2019-04-05T08:27:11.811Z,28.62
2019-04-05T08:29:45.867Z,28.56
2019-04-05T08:32:21.091Z,28.65
2019-04-05T08:34:55.309Z,28.67
2019-04-05T08:37:29.336Z,28.28
2019-04-05T08:40:03.690Z,27.28
2019-04-05T08:42:37.919Z,26.66
2019-04-05T08:45:13.311Z,26.48
2019-04-05T08:47:47.360Z,26.37
2019-04-05T08:50:21.683Z,26.24
2019-04-05T08:52:55.891Z,26.16
2019-04-05T08:55:29.999Z,26.04
2019-04-05T08:58:04.129Z,26.06
2019-04-05T09:00:38.192Z,25.91
2019-04-05T09:03:12.650Z,25.88
2019-04-05T09:05:46.827Z,25.89
2019-04-05T09:08:21.476Z,25.86
2019-04-05T09:10:55.970Z,25.79
2019-04-05T09:13:30.176Z,25.74
2019-04-05T09:16:04.466Z,25.68
2019-04-05T09:18:38.532Z,25.72
2019-04-05T09:21:13.467Z,25.62
2019-04-05T09:23:47.729Z,25.66
2019-04-05T09:26:22.708Z,25.68
2019-04-05T09:28:56.901Z,25.67
2019-04-05T09:31:30.879Z,25.53
2019-04-05T09:34:05.184Z,25.66
2019-04-05T09:36:39.550Z,25.61
2019-04-05T09:39:15.705Z,25.63
2019-04-05T09:41:49.767Z,25.58
2019-04-05T09:44:24.032Z,25.63
2019-04-05T09:46:59.198Z,25.57
2019-04-05T09:49:36.883Z,25.60
2019-04-05T09:52:09.728Z,25.54
2019-04-05T09:54:43.862Z,25.49
2019-04-05T09:57:18.390Z,25.58
2019-04-05T09:59:52.288Z,25.69
2019-04-05T10:02:26.569Z,25.66
2019-04-05T10:05:00.789Z,25.48
2019-04-05T10:07:35.206Z,25.60
2019-04-05T10:10:09.453Z,25.58
2019-04-05T10:12:43.519Z,25.61
2019-04-05T10:15:17.673Z,25.50
2019-04-05T10:17:52.187Z,25.62
2019-04-05T10:20:27.434Z,25.66
2019-04-05T10:23:01.737Z,25.62
2019-04-05T10:25:36.055Z,25.59
2019-04-05T10:28:10.430Z,25.62
2019-04-05T10:30:44.906Z,25.68
2019-04-05T10:33:19.411Z,25.58
2019-04-05T10:35:53.810Z,25.64
2019-04-05T10:38:27.961Z,25.50
2019-04-05T10:41:02.404Z,25.58
2019-04-05T10:43:36.849Z,25.55
2019-04-05T10:46:11.450Z,25.40
2019-04-05T10:48:46.378Z,25.57
2019-04-05T10:51:20.649Z,25.56
2019-04-05T10:53:54.787Z,25.58
2019-04-05T10:56:28.942Z,25.59
2019-04-05T10:59:03.378Z,25.60
2019-04-05T11:01:37.674Z,25.58
2019-04-05T11:04:12.098Z,25.51
2019-04-05T11:06:47.938Z,25.53
2019-04-05T11:09:22.075Z,25.54
2019-04-05T11:11:56.374Z,25.60
2019-04-05T11:14:30.598Z,25.57
2019-04-05T11:17:05.246Z,25.55
2019-04-05T11:19:39.162Z,25.58
2019-04-05T11:22:13.261Z,25.55
2019-04-05T11:24:47.491Z,25.52
2019-04-05T11:27:21.927Z,25.48
2019-04-05T11:29:57.797Z,25.54
2019-04-05T11:32:34.349Z,25.57
2019-04-05T11:35:09.039Z,25.57
2019-04-05T11:37:43.399Z,25.57
2019-04-05T11:40:17.823Z,25.60
2019-04-05T11:42:52.291Z,25.63
2019-04-05T11:45:26.462Z,25.59
2019-04-05T11:48:01.884Z,25.51
2019-04-05T11:50:36.886Z,25.59
2019-04-05T11:53:11.604Z,25.58
2019-04-05T11:55:46.749Z,25.45
2019-04-05T11:58:21.288Z,25.59
2019-04-05T12:00:58.936Z,25.55
2019-04-05T12:03:33.056Z,25.30
2019-04-05T12:06:07.495Z,25.56
2019-04-05T12:08:41.945Z,25.44
2019-04-05T12:11:16.260Z,25.51
2019-04-05T12:13:50.595Z,25.50
2019-04-05T12:16:24.737Z,25.53
2019-04-05T12:18:59.119Z,25.60
2019-04-05T12:21:34.860Z,25.61
2019-04-05T12:24:09.547Z,25.62
2019-04-05T12:26:43.709Z,25.70
2019-04-05T12:29:17.709Z,25.78
2019-04-05T12:31:53.435Z,25.78
2019-04-05T12:34:28.726Z,25.85
2019-04-05T12:37:03.115Z,25.81
2019-04-05T12:39:38.675Z,25.78
2019-04-05T12:42:13.092Z,27.06
2019-04-05T12:44:47.299Z,27.49
2019-04-05T12:47:21.579Z,27.65
2019-04-05T12:49:55.768Z,27.85
2019-04-05T12:52:29.920Z,27.88
2019-04-05T12:55:04.214Z,28.05
2019-04-05T12:57:38.238Z,28.07
2019-04-05T13:00:14.235Z,28.14
2019-04-05T13:02:50.361Z,28.40
2019-04-05T13:05:24.278Z,28.33
2019-04-05T13:07:58.274Z,28.48
2019-04-05T13:10:32.503Z,28.47
2019-04-05T13:13:06.984Z,28.38
2019-04-05T13:15:41.333Z,27.91
2019-04-05T13:18:15.208Z,27.72
2019-04-05T13:20:49.024Z,27.64
2019-04-05T13:23:23.087Z,27.60
2019-04-05T13:25:57.927Z,27.58
2019-04-05T13:28:31.854Z,27.57
2019-04-05T13:31:06.419Z,27.58
2019-04-05T13:33:40.574Z,27.58
2019-04-05T13:36:14.765Z,27.61
2019-04-05T13:38:54.688Z,27.60
2019-04-05T13:41:24.399Z,27.61
2019-04-05T13:44:01.360Z,27.62
2019-04-05T13:46:38.311Z,27.63
2019-04-05T13:49:11.425Z,27.65
2019-04-05T13:51:45.706Z,27.66
2019-04-05T13:54:20.021Z,27.66
2019-04-05T13:56:54.346Z,27.68
2019-04-05T13:59:28.469Z,27.68
2019-04-05T14:02:06.269Z,27.68
2019-04-05T14:04:38.599Z,27.70
2019-04-05T14:07:12.639Z,27.73
2019-04-05T14:09:46.671Z,27.74
2019-04-05T14:12:20.803Z,27.75
2019-04-05T14:14:54.919Z,27.77
2019-04-05T14:17:29.151Z,27.79
2019-04-05T14:20:03.125Z,27.81
2019-04-05T14:22:37.374Z,27.81
2019-04-05T14:25:12.156Z,27.83
2019-04-05T14:27:47.252Z,27.84
2019-04-05T14:30:21.582Z,27.85
2019-04-05T14:32:55.800Z,27.86
2019-04-05T14:35:30.025Z,27.88
2019-04-05T14:38:04.193Z,28.85
2019-04-05T14:40:38.374Z,28.98
2019-04-05T14:43:12.824Z,29.04
2019-04-05T14:45:49.805Z,29.01
2019-04-05T14:48:27.310Z,29.04
2019-04-05T14:51:00.029Z,29.11
2019-04-05T14:53:34.030Z,29.12
2019-04-05T14:56:08.392Z,29.12
2019-04-05T14:58:42.588Z,29.15
2019-04-05T15:01:17.560Z,29.18
2019-04-05T15:03:51.936Z,29.16
2019-04-05T15:06:26.737Z,29.21
2019-04-05T15:09:02.135Z,28.87
2019-04-05T15:11:37.269Z,28.61
2019-04-05T15:14:11.636Z,28.50
2019-04-05T15:16:45.630Z,28.46
2019-04-05T15:19:19.649Z,28.44
2019-04-05T15:22:05.178Z,28.42
2019-04-05T15:24:29.596Z,28.42
2019-04-05T15:27:03.596Z,28.41
2019-04-05T15:29:37.644Z,28.41
2019-04-05T15:32:12.078Z,28.41
2019-04-05T15:34:46.289Z,28.41
2019-04-05T15:37:20.633Z,28.41
2019-04-05T15:39:54.828Z,28.40
2019-04-05T15:42:29.276Z,28.41
2019-04-05T15:45:03.533Z,28.43
2019-04-05T15:47:37.898Z,29.56
2019-04-05T15:50:12.429Z,29.84
2019-04-05T15:52:46.691Z,29.69
2019-04-05T15:55:20.759Z,29.84
2019-04-05T15:57:54.867Z,28.97
2019-04-05T16:00:44.395Z,28.30
2019-04-05T16:03:18.549Z,27.93
2019-04-05T16:05:52.607Z,27.35
2019-04-05T16:08:27.439Z,27.18
2019-04-05T16:11:01.775Z,27.11
2019-04-05T16:13:35.839Z,26.91
2019-04-05T16:16:10.243Z,26.81
2019-04-05T16:18:44.500Z,26.76
2019-04-05T16:21:18.700Z,26.67
2019-04-05T16:23:52.701Z,26.62
2019-04-05T16:26:27.112Z,26.59
2019-04-05T16:29:01.383Z,26.54
2019-04-05T16:31:35.542Z,26.42
2019-04-05T16:34:09.967Z,26.35
2019-04-05T16:36:46.772Z,26.35
2019-04-05T16:39:22.428Z,26.28
2019-04-05T16:41:58.631Z,26.24
2019-04-05T16:44:33.011Z,26.11
2019-04-05T16:47:07.067Z,26.15
2019-04-05T16:49:41.219Z,26.21
2019-04-05T16:52:15.111Z,26.18
2019-04-05T16:54:49.532Z,25.95
2019-04-05T16:57:24.819Z,26.10
2019-04-05T16:59:58.774Z,26.12
2019-04-05T17:02:32.997Z,26.24
2019-04-05T17:05:07.472Z,26.30
2019-04-05T17:07:41.542Z,26.21
2019-04-05T17:10:15.804Z,26.30
2019-04-05T17:12:50.141Z,26.27
2019-04-05T17:15:24.188Z,26.11
2019-04-05T17:17:59.950Z,26.28
2019-04-05T17:20:34.078Z,26.24
2019-04-05T17:23:08.209Z,26.23
2019-04-05T17:25:42.533Z,26.27
2019-04-05T17:28:16.641Z,26.25
2019-04-05T17:30:51.270Z,26.15
2019-04-05T17:33:25.733Z,26.12
2019-04-05T17:36:00.212Z,26.19
2019-04-05T17:38:34.256Z,26.23
2019-04-05T17:41:08.479Z,26.11
2019-04-05T17:43:42.688Z,26.21
2019-04-05T17:46:17.288Z,26.16
2019-04-05T17:48:52.012Z,26.11
2019-04-05T17:51:26.466Z,26.07
2019-04-05T17:54:00.435Z,26.07
2019-04-05T17:56:35.270Z,26.01
2019-04-05T17:59:09.649Z,26.12
2019-04-05T18:01:44.370Z,26.07
2019-04-05T18:04:18.635Z,26.01
2019-04-05T18:06:52.980Z,26.08
2019-04-05T18:09:27.473Z,26.04
2019-04-05T18:12:01.745Z,26.13
2019-04-05T18:14:36.037Z,26.17
2019-04-05T18:17:10.268Z,26.05
2019-04-05T18:19:44.308Z,26.17
2019-04-05T18:22:18.035Z,26.19
2019-04-05T18:24:51.719Z,26.09
2019-04-05T18:27:25.608Z,25.98
2019-04-05T18:29:59.836Z,26.25
2019-04-05T18:32:34.161Z,26.18
2019-04-05T18:35:08.862Z,25.84
2019-04-05T18:37:43.002Z,25.91
2019-04-05T18:40:17.384Z,25.91
2019-04-05T18:42:51.638Z,25.77
2019-04-05T18:45:25.664Z,25.85
2019-04-05T18:47:59.865Z,25.79
2019-04-05T18:50:33.876Z,25.51
2019-04-05T18:53:08.096Z,25.64
2019-04-05T18:55:42.353Z,25.64
2019-04-05T18:58:16.940Z,25.87
2019-04-05T19:00:51.147Z,25.72
2019-04-05T19:03:25.675Z,25.84
2019-04-05T19:05:59.601Z,25.76
2019-04-05T19:08:39.858Z,25.85
2019-04-05T19:11:09.797Z,25.76
2019-04-05T19:13:43.897Z,25.82
2019-04-05T19:16:18.142Z,25.73
2019-04-05T19:18:52.308Z,25.83
2019-04-05T19:21:27.713Z,25.70
2019-04-05T19:24:01.811Z,25.78
2019-04-05T19:26:36.121Z,25.60
2019-04-05T19:29:10.004Z,25.77
2019-04-05T19:49:57.218Z,25.77
2019-04-05T19:52:31.345Z,25.83
2019-04-05T19:55:05.608Z,25.68
2019-04-05T19:57:39.730Z,25.76
2019-04-05T20:00:14.237Z,25.58
2019-04-05T20:02:48.638Z,25.55
2019-04-05T20:05:22.767Z,25.36
2019-04-05T20:07:56.952Z,25.47
2019-04-05T20:10:31.143Z,25.21
2019-04-05T20:13:05.284Z,25.13
2019-04-05T20:15:39.665Z,25.10
2019-04-05T20:18:13.832Z,25.17
2019-04-05T20:20:49.024Z,24.95
2019-04-05T20:23:23.055Z,25.10
2019-04-05T20:25:57.251Z,24.62
2019-04-05T20:28:31.348Z,24.74
2019-04-05T20:31:05.738Z,24.55
2019-04-05T20:33:39.941Z,24.92
2019-04-05T20:36:14.222Z,24.83
2019-04-05T20:38:48.044Z,25.01
2019-04-05T20:41:22.231Z,24.95
2019-04-05T20:43:56.332Z,24.99
2019-04-05T20:46:30.702Z,24.91
2019-04-05T20:49:04.757Z,24.92
2019-04-05T20:51:38.820Z,24.74
2019-04-05T20:54:12.808Z,24.72
2019-04-05T20:56:47.019Z,24.80
2019-04-05T20:59:21.190Z,24.54
2019-04-05T21:01:55.149Z,24.74
2019-04-05T21:04:29.210Z,24.89
2019-04-05T21:07:03.255Z,24.86
2019-04-05T21:09:37.579Z,24.83
2019-04-05T21:12:11.656Z,24.71
2019-04-05T21:14:45.556Z,24.68
2019-04-05T21:17:19.850Z,24.67
2019-04-05T21:19:53.955Z,24.77
2019-04-05T21:22:28.208Z,24.52
2019-04-05T21:25:02.156Z,24.50
2019-04-05T21:27:36.558Z,24.71
2019-04-05T21:30:11.368Z,24.69
2019-04-05T21:32:45.634Z,24.37
2019-04-05T21:35:19.892Z,24.71
2019-04-05T21:37:53.855Z,24.65
2019-04-05T21:40:28.001Z,24.60
2019-04-05T21:43:02.212Z,24.72
2019-04-05T21:45:36.421Z,24.69
2019-04-05T21:48:10.592Z,24.55
2019-04-05T21:50:44.873Z,24.50
2019-04-05T21:53:19.017Z,24.72
2019-04-05T21:55:53.192Z,24.57
2019-04-05T21:58:27.149Z,24.67
2019-04-05T22:01:06.402Z,24.66
2019-04-05T22:03:40.916Z,24.47
2019-04-05T22:06:15.363Z,24.73
2019-04-05T22:08:49.668Z,24.68
2019-04-05T22:11:23.919Z,24.79
2019-04-05T22:13:58.004Z,24.76
2019-04-05T22:16:32.005Z,24.66
2019-04-05T22:19:06.055Z,24.78
2019-04-05T22:21:41.553Z,24.77
2019-04-05T22:24:15.924Z,24.81
2019-04-05T22:26:50.063Z,24.82
2019-04-05T22:29:23.957Z,24.76
2019-04-05T22:31:57.974Z,24.79
2019-04-05T22:34:32.330Z,24.80
2019-04-05T22:37:07.255Z,24.78
2019-04-05T22:39:41.217Z,24.82
2019-04-05T22:42:15.318Z,24.61
2019-04-05T22:44:49.485Z,24.76
2019-04-05T22:47:23.596Z,24.78
2019-04-05T22:49:57.584Z,24.77
2019-04-05T22:52:31.653Z,24.66
2019-04-05T22:55:11.705Z,24.77
2019-04-05T22:57:42.080Z,24.72
2019-04-05T23:00:16.602Z,24.72
2019-04-05T23:02:51.983Z,24.65
2019-04-05T23:05:26.172Z,24.73
2019-04-05T23:08:00.404Z,24.77
2019-04-05T23:10:34.441Z,24.75
2019-04-05T23:13:08.490Z,24.78
2019-04-05T23:15:42.734Z,24.72
2019-04-05T23:18:16.885Z,24.79
2019-04-05T23:20:51.068Z,24.77
2019-04-05T23:23:25.071Z,24.74
2019-04-05T23:25:59.507Z,24.76
2019-04-05T23:28:33.767Z,24.76
2019-04-05T23:31:08.004Z,24.76
2019-04-05T23:33:42.317Z,24.73
2019-04-05T23:36:16.374Z,24.60
2019-04-05T23:38:50.476Z,24.71
2019-04-05T23:41:24.354Z,24.73
2019-04-05T23:43:58.644Z,24.70
2019-04-05T23:46:32.929Z,24.71
2019-04-05T23:49:06.931Z,24.70
2019-04-05T23:51:41.203Z,24.70
2019-04-05T23:54:15.315Z,24.66
2019-04-05T23:56:49.387Z,24.57
2019-04-05T23:59:23.378Z,24.48
